createdAt,value
2022-08-30T00:00:00.843Z,5.57
2022-08-30T00:02:30.603Z,5.50
2022-08-30T00:05:01.499Z,5.35
2022-08-30T00:07:30.782Z,6.65
2022-08-30T00:09:58.988Z,6.45
2022-08-30T00:12:27.846Z,5.97
2022-08-30T00:14:56.538Z,6.03
2022-08-30T00:17:24.796Z,7.13
2022-08-30T00:19:55.867Z,7.03
2022-08-30T00:22:24.156Z,6.53
2022-08-30T00:24:52.480Z,6.88
2022-08-30T00:27:21.051Z,6.07
2022-08-30T00:29:49.257Z,5.93
2022-08-30T00:32:18.075Z,6.53
2022-08-30T00:34:46.275Z,5.93
2022-08-30T00:37:16.720Z,8.23
2022-08-30T00:39:44.927Z,6.97
2022-08-30T00:42:14.687Z,7.30
2022-08-30T00:44:44.215Z,6.63
2022-08-30T00:47:13.777Z,6.68
2022-08-30T00:49:49.390Z,6.32
2022-08-30T00:52:20.353Z,6.60
2022-08-30T00:54:51.977Z,6.13
2022-08-30T00:57:20.909Z,6.72
2022-08-30T00:59:51.626Z,7.38
2022-08-30T01:02:24.206Z,7.00
2022-08-30T01:04:55.448Z,6.35
2022-08-30T01:07:25.339Z,6.22
2022-08-30T01:09:53.665Z,6.05
2022-08-30T01:12:23.401Z,6.70
2022-08-30T01:14:51.792Z,8.02
2022-08-30T01:17:22.032Z,6.63
2022-08-30T01:19:58.260Z,6.97
2022-08-30T01:22:37.271Z,7.85
2022-08-30T01:25:10.573Z,7.10
2022-08-30T01:27:43.885Z,9.77
2022-08-30T01:30:14.218Z,6.78
2022-08-30T01:32:48.471Z,6.88
2022-08-30T01:35:20.413Z,6.45
2022-08-30T01:37:49.426Z,8.75
2022-08-30T01:40:22.297Z,6.63
2022-08-30T01:42:51.127Z,7.28
2022-08-30T01:45:19.681Z,7.10
2022-08-30T01:47:47.932Z,8.20
2022-08-30T01:50:16.736Z,6.75
2022-08-30T01:52:45.150Z,9.10
2022-08-30T01:55:13.488Z,9.00
2022-08-30T01:57:43.246Z,10.63
2022-08-30T02:00:12.936Z,7.22
2022-08-30T02:02:41.535Z,9.45
2022-08-30T02:05:10.618Z,6.40
2022-08-30T02:07:38.882Z,6.90
2022-08-30T02:10:08.446Z,7.80
2022-08-30T02:12:36.811Z,6.85
2022-08-30T02:15:08.899Z,6.05
2022-08-30T02:17:38.011Z,6.28
2022-08-30T02:20:08.047Z,8.40
2022-08-30T02:22:36.480Z,9.75
2022-08-30T02:25:06.414Z,9.88
2022-08-30T02:27:39.593Z,6.82
2022-08-30T02:30:14.419Z,9.35
2022-08-30T02:32:42.630Z,7.30
2022-08-30T02:35:11.368Z,9.55
2022-08-30T02:37:39.574Z,7.63
2022-08-30T02:40:10.181Z,9.00
2022-08-30T02:42:38.534Z,7.50
2022-08-30T02:45:08.059Z,9.80
2022-08-30T02:47:38.177Z,6.65
2022-08-30T02:50:09.951Z,7.97
2022-08-30T02:52:38.434Z,8.50
2022-08-30T02:55:08.852Z,9.35
2022-08-30T02:57:37.949Z,7.32
2022-08-30T03:00:09.374Z,7.43
2022-08-30T03:02:38.988Z,7.63
2022-08-30T03:05:07.751Z,8.25
2022-08-30T03:07:36.051Z,10.15
2022-08-30T03:10:04.833Z,8.35
2022-08-30T03:12:33.419Z,9.68
2022-08-30T03:15:03.109Z,7.45
2022-08-30T03:17:31.382Z,8.93
2022-08-30T03:20:02.233Z,8.23
2022-08-30T03:22:30.834Z,11.25
2022-08-30T03:25:00.118Z,7.05
2022-08-30T03:27:30.308Z,9.00
2022-08-30T03:29:59.031Z,8.02
2022-08-30T03:32:27.403Z,8.43
2022-08-30T03:34:55.614Z,7.65
2022-08-30T03:37:27.506Z,7.68
2022-08-30T03:39:55.881Z,9.68
2022-08-30T03:42:25.220Z,10.55
2022-08-30T03:44:53.580Z,8.73
2022-08-30T03:47:22.304Z,8.18
2022-08-30T03:49:50.757Z,8.95
2022-08-30T03:52:18.973Z,7.25
2022-08-30T03:54:48.738Z,9.05
2022-08-30T03:57:19.950Z,7.00
2022-08-30T03:59:48.756Z,7.13
2022-08-30T04:02:16.973Z,9.32
2022-08-30T04:04:45.252Z,9.30
2022-08-30T04:07:13.473Z,8.35
2022-08-30T04:09:41.857Z,8.30
2022-08-30T04:12:11.614Z,9.13
2022-08-30T04:14:39.944Z,8.23
2022-08-30T04:17:10.258Z,10.30
2022-08-30T04:19:38.456Z,8.65
2022-08-30T04:22:06.938Z,8.90
2022-08-30T04:24:35.208Z,11.60
2022-08-30T04:27:03.335Z,7.40
2022-08-30T04:29:32.868Z,8.70
2022-08-30T04:32:01.245Z,7.70
2022-08-30T04:34:29.622Z,10.07
2022-08-30T04:36:57.819Z,8.35
2022-08-30T04:39:27.566Z,9.57
2022-08-30T04:41:56.010Z,7.68
2022-08-30T04:44:27.362Z,8.75
2022-08-30T04:46:56.963Z,8.48
2022-08-30T04:49:25.229Z,8.93
2022-08-30T04:51:53.457Z,11.73
2022-08-30T04:54:21.693Z,7.85
2022-08-30T04:56:49.983Z,9.93
2022-08-30T04:59:18.179Z,8.30
2022-08-30T05:01:46.405Z,9.23
2022-08-30T05:04:16.800Z,10.25
2022-08-30T05:06:45.356Z,8.77
2022-08-30T05:09:14.031Z,10.38
2022-08-30T05:11:43.395Z,8.25
2022-08-30T05:14:12.081Z,9.90
2022-08-30T05:16:41.553Z,9.80
2022-08-30T05:19:10.066Z,11.20
2022-08-30T05:21:41.502Z,10.25
2022-08-30T05:24:10.443Z,10.00
2022-08-30T05:26:40.302Z,9.88
2022-08-30T05:29:08.659Z,10.60
2022-08-30T05:31:37.946Z,10.07
2022-08-30T05:34:06.817Z,10.00
2022-08-30T05:36:37.645Z,14.35
2022-08-30T05:39:09.560Z,10.80
2022-08-30T05:41:39.675Z,12.32
2022-08-30T05:44:10.191Z,12.82
2022-08-30T08:41:37.883Z,11.60
2022-08-30T08:44:16.584Z,9.60
2022-08-30T08:46:58.421Z,11.15
2022-08-30T08:49:27.016Z,9.35
2022-08-30T08:52:14.322Z,7.50
2022-08-30T08:54:49.992Z,10.18
2022-08-30T08:57:24.460Z,9.98
2022-08-30T08:59:54.458Z,5.85
2022-08-30T09:02:28.451Z,9.40
2022-08-30T09:05:01.559Z,7.75
2022-08-30T09:07:37.812Z,7.10
2022-08-30T09:10:08.219Z,7.93
2022-08-30T09:12:38.140Z,5.38
2022-08-30T09:15:16.978Z,5.57
2022-08-30T09:17:57.148Z,6.85
2022-08-30T09:20:30.999Z,5.32
2022-08-30T09:23:00.280Z,5.53
2022-08-30T09:25:32.469Z,7.15
2022-08-30T09:28:14.518Z,5.45
2022-08-30T09:31:02.683Z,6.50
2022-08-30T09:33:32.800Z,4.63
2022-08-30T09:36:22.863Z,7.45
2022-08-30T09:39:01.948Z,6.43
2022-08-30T09:41:40.058Z,8.95
2022-08-30T09:44:16.763Z,6.97
2022-08-30T09:46:49.724Z,8.40
2022-08-30T09:49:36.939Z,6.55
2022-08-30T09:52:35.817Z,7.60
2022-08-30T09:55:22.157Z,6.90
2022-08-30T09:58:07.039Z,7.05
2022-08-30T10:00:45.407Z,9.48
2022-08-30T10:03:36.166Z,11.63
2022-08-30T10:06:24.606Z,7.10
2022-08-30T10:09:13.530Z,6.68
2022-08-30T10:11:50.658Z,9.18
2022-08-30T10:14:57.173Z,6.68
2022-08-30T10:17:49.261Z,7.95
2022-08-30T10:20:27.652Z,6.28
2022-08-30T10:23:06.216Z,8.05
2022-08-30T10:25:43.949Z,5.53
2022-08-30T10:28:21.505Z,7.57
2022-08-30T10:31:00.232Z,6.65
2022-08-30T10:33:39.644Z,5.30
2022-08-30T10:36:14.694Z,6.28
2022-08-30T10:38:48.866Z,6.82
2022-08-30T10:41:35.283Z,5.35
2022-08-30T10:44:16.372Z,9.88
2022-08-30T10:47:02.756Z,5.80
2022-08-30T10:49:40.757Z,5.53
2022-08-30T10:52:25.651Z,4.40
2022-08-30T10:55:00.242Z,5.38
2022-08-30T10:57:28.744Z,5.25
2022-08-30T11:00:06.062Z,5.20
2022-08-30T11:03:25.126Z,5.72
2022-08-30T11:06:19.434Z,5.60
2022-08-30T11:09:32.396Z,4.03
2022-08-30T11:12:29.276Z,4.45
2022-08-30T11:14:58.547Z,6.47
2022-08-30T11:17:47.532Z,5.15
2022-08-30T11:20:36.287Z,6.88
2022-08-30T11:23:33.534Z,5.00
2022-08-30T11:26:06.489Z,4.38
2022-08-30T11:29:06.469Z,7.18
2022-08-30T11:31:43.087Z,5.38
2022-08-30T11:34:13.224Z,5.18
2022-08-30T11:37:10.325Z,5.63
2022-08-30T11:39:57.198Z,6.13
2022-08-30T11:42:42.509Z,5.55
2022-08-30T11:45:47.869Z,4.75
2022-08-30T11:48:53.717Z,4.95
2022-08-30T11:52:26.314Z,4.57
2022-08-30T11:55:08.950Z,7.43
2022-08-30T11:57:50.423Z,4.90
2022-08-30T12:00:35.144Z,3.85
2022-08-30T12:03:06.950Z,6.32
2022-08-30T12:06:00.747Z,3.83
2022-08-30T12:08:59.541Z,3.92
2022-08-30T12:11:59.717Z,5.28
2022-08-30T12:14:52.060Z,5.10
2022-08-30T12:17:44.486Z,5.28
2022-08-30T12:20:23.043Z,6.18
2022-08-30T12:22:52.572Z,5.13
2022-08-30T12:25:28.967Z,5.38
2022-08-30T12:28:16.073Z,7.22
2022-08-30T12:30:46.449Z,5.50
2022-08-30T12:33:29.079Z,6.45
2022-08-30T12:35:59.406Z,5.53
2022-08-30T12:38:29.726Z,5.07
2022-08-30T12:41:02.639Z,5.43
2022-08-30T12:43:41.522Z,4.60
2022-08-30T12:46:15.982Z,6.43
2022-08-30T12:48:46.379Z,5.05
2022-08-30T12:51:35.142Z,4.80
2022-08-30T12:54:19.626Z,5.13
2022-08-30T12:57:13.921Z,4.95
2022-08-30T12:59:59.226Z,6.63
2022-08-30T13:02:43.806Z,6.97
2022-08-30T13:05:48.615Z,4.95
2022-08-30T13:08:26.247Z,6.20
2022-08-30T13:11:01.534Z,5.07
2022-08-30T13:13:39.678Z,5.53
2022-08-30T13:16:22.453Z,5.35
2022-08-30T13:18:53.265Z,5.35
2022-08-30T13:21:30.610Z,5.47
2022-08-30T13:24:01.950Z,5.30
2022-08-30T13:26:34.843Z,5.35
2022-08-30T13:29:08.728Z,5.53
2022-08-30T13:31:40.040Z,5.47
2022-08-30T13:34:08.900Z,5.20
2022-08-30T13:36:46.540Z,5.30
2022-08-30T13:39:15.072Z,5.60
2022-08-30T13:41:44.219Z,5.85
2022-08-30T13:44:13.575Z,5.22
2022-08-30T13:46:53.991Z,5.43
2022-08-30T13:49:44.641Z,6.47
2022-08-30T13:52:22.040Z,6.63
2022-08-30T13:54:51.598Z,6.05
2022-08-30T14:00:17.519Z,6.82
2022-08-30T14:02:54.830Z,5.20
2022-08-30T14:11:06.715Z,4.50
2022-08-30T14:13:35.452Z,4.93
2022-08-30T14:19:00.393Z,4.68
2022-08-30T14:21:29.121Z,4.88
2022-08-30T14:23:59.646Z,4.90
2022-08-30T14:26:32.973Z,4.55
2022-08-30T14:29:02.358Z,5.00
2022-08-30T14:31:32.761Z,4.88
2022-08-30T14:34:05.086Z,4.65
2022-08-30T14:36:35.659Z,5.03
2022-08-30T14:39:08.695Z,4.50
2022-08-30T14:41:43.705Z,4.85
2022-08-30T14:44:13.005Z,4.88
2022-08-30T14:46:41.411Z,5.18
2022-08-30T14:49:12.571Z,5.30
2022-08-30T14:51:41.676Z,5.57
2022-08-30T14:54:10.903Z,6.10
2022-08-30T14:56:40.825Z,4.93
2022-08-30T14:59:09.494Z,4.60
2022-08-30T15:01:41.769Z,5.78
2022-08-30T15:04:13.236Z,4.68
2022-08-30T15:06:45.153Z,5.38
2022-08-30T15:09:16.526Z,5.18
2022-08-30T15:11:44.740Z,4.75
2022-08-30T15:14:16.370Z,5.65
2022-08-30T15:16:45.757Z,5.40
2022-08-30T15:19:15.630Z,5.68
2022-08-30T15:21:47.556Z,5.30
2022-08-30T15:24:19.963Z,4.78
2022-08-30T15:26:59.610Z,4.60
2022-08-30T15:29:30.520Z,4.30
2022-08-30T15:32:01.422Z,4.75
2022-08-30T15:34:32.568Z,4.47
2022-08-30T15:37:01.942Z,4.00
2022-08-30T15:39:31.286Z,3.90
2022-08-30T15:42:01.312Z,5.55
2022-08-30T15:44:30.683Z,4.00
2022-08-30T15:46:59.637Z,4.60
2022-08-30T15:49:27.715Z,4.40
2022-08-30T15:52:05.198Z,4.55
2022-08-30T15:54:36.184Z,4.15
2022-08-30T15:57:05.795Z,4.43
2022-08-30T15:59:34.225Z,6.00
2022-08-30T16:02:02.382Z,4.05
2022-08-30T16:04:31.671Z,3.97
2022-08-30T16:07:01.399Z,4.55
2022-08-30T16:09:30.204Z,4.03
2022-08-30T16:12:01.352Z,4.88
2022-08-30T16:14:29.383Z,4.63
2022-08-30T16:16:57.873Z,4.38
2022-08-30T16:19:26.973Z,5.20
2022-08-30T16:21:55.251Z,4.00
2022-08-30T16:24:25.843Z,4.40
2022-08-30T16:26:54.526Z,4.13
2022-08-30T16:29:22.655Z,4.38
2022-08-30T16:31:51.187Z,4.45
2022-08-30T16:34:21.016Z,4.35
2022-08-30T16:36:49.706Z,4.82
2022-08-30T16:39:19.255Z,6.20
2022-08-30T16:41:49.978Z,4.32
2022-08-30T16:44:18.584Z,4.20
2022-08-30T16:46:53.590Z,4.65
2022-08-30T16:49:23.201Z,4.88
2022-08-30T16:51:53.940Z,4.53
2022-08-30T16:54:23.322Z,4.95
2022-08-30T16:56:52.933Z,4.90
2022-08-30T16:59:21.038Z,4.10
2022-08-30T17:01:50.158Z,4.30
2022-08-30T17:04:19.755Z,4.13
2022-08-30T17:09:38.043Z,6.50
2022-08-30T17:12:08.205Z,4.60
2022-08-30T17:14:36.805Z,5.28
2022-08-30T17:17:05.225Z,5.00
2022-08-30T17:19:37.935Z,5.35
2022-08-30T17:22:10.116Z,4.30
2022-08-30T17:24:39.737Z,3.72
2022-08-30T17:27:09.870Z,4.35
2022-08-30T17:29:37.904Z,3.67
2022-08-30T17:32:07.059Z,3.55
2022-08-30T17:34:35.109Z,3.70
2022-08-30T17:37:03.432Z,3.63
2022-08-30T17:39:32.155Z,3.83
2022-08-30T17:42:00.834Z,3.17
2022-08-30T17:44:36.308Z,3.78
2022-08-30T17:47:05.293Z,2.83
2022-08-30T17:49:34.280Z,3.20
2022-08-30T17:52:03.931Z,2.67
2022-08-30T17:54:35.355Z,3.83
2022-08-30T17:57:10.667Z,3.65
2022-08-30T17:59:41.178Z,3.25
2022-08-30T18:02:11.311Z,3.30
2022-08-30T18:04:39.689Z,3.00
2022-08-30T18:07:12.278Z,3.97
2022-08-30T18:09:41.210Z,5.75
2022-08-30T18:12:09.940Z,3.58
2022-08-30T18:14:39.328Z,4.30
2022-08-30T18:17:09.336Z,3.50
2022-08-30T18:19:45.881Z,4.15
2022-08-30T18:22:15.768Z,5.82
2022-08-30T18:24:45.208Z,5.35
2022-08-30T18:27:13.423Z,3.40
2022-08-30T18:29:41.824Z,3.88
2022-08-30T18:32:12.488Z,3.28
2022-08-30T18:34:42.681Z,3.35
2022-08-30T18:37:12.550Z,4.32
2022-08-30T18:39:41.560Z,3.50
2022-08-30T18:42:10.385Z,3.53
2022-08-30T18:44:39.841Z,3.30
2022-08-30T18:47:09.412Z,3.03
2022-08-30T18:49:39.217Z,3.15
2022-08-30T18:52:10.826Z,3.50
2022-08-30T18:54:41.879Z,3.80
2022-08-30T18:57:11.976Z,3.75
2022-08-30T18:59:41.907Z,3.50
2022-08-30T19:02:15.015Z,3.30
2022-08-30T19:04:45.822Z,3.13
2022-08-30T19:07:17.080Z,3.40
2022-08-30T19:09:46.805Z,3.78
2022-08-30T19:12:16.063Z,2.75
2022-08-30T19:14:44.371Z,3.38
2022-08-30T19:17:13.206Z,3.55
2022-08-30T19:19:48.789Z,3.50
2022-08-30T19:22:20.329Z,3.70
2022-08-30T19:24:49.947Z,3.95
2022-08-30T19:27:21.614Z,3.40
2022-08-30T19:30:08.087Z,3.72
2022-08-30T19:32:37.091Z,3.28
2022-08-30T19:35:05.945Z,3.50
2022-08-30T19:37:35.978Z,4.10
2022-08-30T19:40:07.531Z,3.47
2022-08-30T19:42:40.562Z,4.38
2022-08-30T19:45:18.521Z,3.42
2022-08-30T19:47:47.535Z,5.35
2022-08-30T19:50:16.744Z,3.90
2022-08-30T19:52:53.329Z,4.35
2022-08-30T19:55:30.142Z,4.82
2022-08-30T19:58:00.098Z,4.97
2022-08-30T20:00:31.517Z,3.78
2022-08-30T20:03:01.773Z,4.47
2022-08-30T20:05:31.748Z,4.03
2022-08-30T20:08:01.861Z,3.15
2022-08-30T20:10:30.321Z,3.55
2022-08-30T20:12:59.328Z,4.47
2022-08-30T20:15:27.746Z,5.15
2022-08-30T20:18:05.538Z,3.60
2022-08-30T20:20:36.461Z,4.47
2022-08-30T20:23:06.867Z,3.38
2022-08-30T20:24:23.938Z,4.32
2022-08-30T20:25:36.057Z,3.20
2022-08-30T20:28:04.629Z,4.50
2022-08-30T20:30:33.408Z,3.70
2022-08-30T20:33:08.424Z,3.90
2022-08-30T20:35:38.398Z,3.22
2022-08-30T20:38:07.853Z,3.85
2022-08-30T20:40:39.073Z,4.25
2022-08-30T20:43:08.049Z,4.18
2022-08-30T20:45:36.143Z,4.20
2022-08-30T20:48:05.726Z,3.92
2022-08-30T20:50:33.866Z,4.32
2022-08-30T20:53:02.071Z,3.88
2022-08-30T20:55:31.623Z,4.35
2022-08-30T20:57:59.820Z,3.90
2022-08-30T21:00:28.552Z,4.03
2022-08-30T21:02:57.246Z,4.07
2022-08-30T21:05:25.630Z,4.95
2022-08-30T21:07:53.885Z,5.90
2022-08-30T21:10:23.621Z,3.78
2022-08-30T21:12:53.384Z,3.83
2022-08-30T21:15:41.812Z,3.95
2022-08-30T21:18:09.856Z,4.38
2022-08-30T21:20:37.976Z,4.57
2022-08-30T21:23:06.037Z,3.55
2022-08-30T21:25:34.554Z,5.60
2022-08-30T21:28:04.347Z,3.72
2022-08-30T21:30:32.480Z,3.60
2022-08-30T21:33:00.781Z,4.13
2022-08-30T21:35:46.767Z,6.25
2022-08-30T21:38:15.188Z,5.38
2022-08-30T21:40:44.081Z,3.33
2022-08-30T21:43:13.956Z,3.88
2022-08-30T21:45:43.871Z,3.70
2022-08-30T21:48:14.353Z,4.45
2022-08-30T21:50:45.660Z,4.32
2022-08-30T21:53:15.582Z,3.17
2022-08-30T21:55:45.823Z,3.35
2022-08-30T21:58:17.687Z,4.57
2022-08-30T22:00:45.816Z,3.17
2022-08-30T22:03:14.007Z,3.72
2022-08-30T22:05:42.615Z,3.75
2022-08-30T22:08:10.736Z,3.53
2022-08-30T22:10:38.835Z,3.25
2022-08-30T22:13:10.032Z,3.67
2022-08-30T22:15:40.252Z,3.10
2022-08-30T22:18:08.472Z,3.25
2022-08-30T22:20:36.604Z,3.28
2022-08-30T22:23:05.088Z,3.47
2022-08-30T22:25:33.261Z,3.40
2022-08-30T22:28:01.372Z,3.42
2022-08-30T22:30:32.435Z,3.72
2022-08-30T22:33:02.489Z,3.50
2022-08-30T22:35:30.648Z,3.80
2022-08-30T22:37:59.038Z,3.58
2022-08-30T22:40:27.298Z,3.90
2022-08-30T22:42:55.592Z,3.65
2022-08-30T22:45:23.700Z,4.60
2022-08-30T22:47:51.788Z,3.33
2022-08-30T22:50:21.665Z,3.50
2022-08-30T22:52:50.709Z,3.47
2022-08-30T22:55:19.078Z,3.60
2022-08-30T22:57:47.252Z,4.05
2022-08-30T23:00:20.161Z,4.70
2022-08-30T23:02:51.403Z,5.50
2022-08-30T23:05:23.975Z,4.43
2022-08-30T23:07:52.359Z,3.30
2022-08-30T23:10:21.842Z,3.92
2022-08-30T23:12:49.938Z,3.50
2022-08-30T23:15:18.083Z,3.38
2022-08-30T23:17:46.211Z,3.47
2022-08-30T23:20:14.573Z,4.53
2022-08-30T23:22:44.346Z,6.00
2022-08-30T23:25:32.095Z,3.67
2022-08-30T23:28:27.110Z,5.07
2022-08-30T23:31:13.445Z,3.33
2022-08-30T23:33:59.204Z,4.05
2022-08-30T23:36:44.720Z,3.40
2022-08-30T23:39:31.596Z,3.30
2022-08-30T23:42:17.089Z,3.13
2022-08-30T23:45:02.870Z,3.25
2022-08-30T23:47:48.687Z,3.28
2022-08-30T23:50:34.308Z,3.20
2022-08-30T23:53:20.294Z,3.30
2022-08-30T23:56:07.811Z,3.92
2022-08-30T23:58:54.675Z,3.42
